Airport View

Enter AWOS ICAO identifier for current METAR.

KFNL for example

KPIT 240813Z 24006KT 10SM SCT005 BKN020 OVC027 20/19 A2980 RMK AO2 T02000194

24 Jul 2017 08:27

Phone: 412-472-0145

Other Area AWOS: 42PN - KAGC - KBVI - KBTP

TAF AMD KPIT 240601Z 2406/2512 25004KT P6SM OVC008 FM241400 26006KT P6SM BKN250 FM241700 27008KT P6SM VCTS BKN050CB FM242300 30008KT P6SM SCT090